マナウス の空港の天気 - METARとTAF

エドワルド ゴメス国際空港(マナウス) ( SBEG / MAO ) - ブラジル アマゾナス州マナウス
飛行場実況気象(Metar)
観測時間10/25 15:00 AMT (10/25 19:00 UTC)
風向・風速南 3m/s
視程10km以上
天気現象
全天の4割程度の雲 雲底高度 760m
少しの雲 雲底高度 910m
気温31℃
湿度66%
気圧1008hPa
METARSBEG 251900Z 18005KT 9999 SCT025 FEW030TCU 31/24 Q1008
過去の天気等 Google飛行場航空写真 Wunderground天気予報

過去48時間のMETAR

飛行場予報(TAF)
発表時間: 10/25 12:15 AMT (10/25 16:15 UTC)
予報対象時間: 25日14時 AMT ~ 26日14時 AMT
風向・風速北東 5m/s
視程10km以上
全天の4割程度の雲 雲底高度 610m
少しの塔状積雲 雲底高度 910m
25日16時 AMT ~ 25日19時 AMT に 確率 30% で一時的に
風向・風速西 5m/s
視程8000m
天気現象
全天の8割程度の雲 雲底高度 520m
少しの積乱雲 雲底高度 760m
25日20時 AMT ~ 25日22時 AMT に徐々に
風向・風速北西 3m/s
少しの雲 雲底高度 820m
26日2時 AMT ~ 26日4時 AMT に徐々に
視程8000m
全天の4割程度の雲 雲底高度 520m
少しの塔状積雲 雲底高度 910m
26日6時 AMT ~ 26日11時 AMT に 確率 40% で一時的に
風向・風速北 5m/s
視程4000m
天気現象雷雨
全天の8割程度の雲 雲底高度 460m
少しの積乱雲 雲底高度 760m
26日11時 AMT ~ 26日7時 AMT に徐々に
風向・風速北東 5m/s
全天の4割程度の雲 雲底高度 610m
全天の8割程度の雲 雲底高度 1370m
TAF SBEG 251615Z 2518/2618 05010KT 9999 SCT020 FEW030TCU TX31/2518Z TN24/2609Z
PROB30 TEMPO 2520/2523 27010KT 8000 TS BKN017 FEW025CB
BECMG 2600/2602 32005KT FEW027
BECMG 2606/2608 8000 SCT017 FEW030TCU
PROB40 TEMPO 2610/2615 01010KT 4000 TSRA BKN015 FEW025CB
BECMG 2615/26117 04010KT SCT020 BKN045 RMK PGB